sensor_id;sensor_type;location;lat;lon;timestamp;pressure;altitude;pressure_sealevel;temperature;humidity
25638;BME280;13496;51.040;13.680;2023-04-29T00:04:54;99251.38;;;19.05;48.49
25638;BME280;13496;51.040;13.680;2023-04-29T00:09:57;99245.31;;;19.04;48.79
25638;BME280;13496;51.040;13.680;2023-04-29T00:14:59;99241.06;;;19.03;48.77
25638;BME280;13496;51.040;13.680;2023-04-29T00:20:03;99230.75;;;19.02;48.63
25638;BME280;13496;51.040;13.680;2023-04-29T00:25:06;99221.25;;;19.01;48.87
25638;BME280;13496;51.040;13.680;2023-04-29T00:30:08;99212.56;;;19.00;48.75
25638;BME280;13496;51.040;13.680;2023-04-29T00:35:09;99220.22;;;19.02;49.11
25638;BME280;13496;51.040;13.680;2023-04-29T00:40:11;99224.09;;;18.99;48.60
25638;BME280;13496;51.040;13.680;2023-04-29T00:45:15;99214.38;;;19.00;48.79
25638;BME280;13496;51.040;13.680;2023-04-29T00:50:17;99215.41;;;18.99;48.73
25638;BME280;13496;51.040;13.680;2023-04-29T00:55:19;99214.78;;;18.97;48.86
25638;BME280;13496;51.040;13.680;2023-04-29T01:00:21;99214.78;;;18.97;49.05
25638;BME280;13496;51.040;13.680;2023-04-29T01:05:23;99211.34;;;18.96;48.67
25638;BME280;13496;51.040;13.680;2023-04-29T01:10:32;99203.63;;;18.95;48.93
25638;BME280;13496;51.040;13.680;2023-04-29T01:15:46;99212.38;;;18.95;48.62
25638;BME280;13496;51.040;13.680;2023-04-29T01:20:50;99208.09;;;18.94;48.62
25638;BME280;13496;51.040;13.680;2023-04-29T01:25:52;99208.91;;;18.95;48.95
25638;BME280;13496;51.040;13.680;2023-04-29T01:31:18;99226.50;;;18.94;48.87
25638;BME280;13496;51.040;13.680;2023-04-29T01:41:55;99238.03;;;18.93;48.64
25638;BME280;13496;51.040;13.680;2023-04-29T01:47:02;99239.44;;;18.89;48.78
25638;BME280;13496;51.040;13.680;2023-04-29T01:52:10;99242.06;;;18.89;48.77
25638;BME280;13496;51.040;13.680;2023-04-29T01:57:14;99241.06;;;18.90;48.83
25638;BME280;13496;51.040;13.680;2023-04-29T02:02:42;99249.16;;;18.89;48.93
25638;BME280;13496;51.040;13.680;2023-04-29T02:08:10;99247.56;;;18.88;49.09
25638;BME280;13496;51.040;13.680;2023-04-29T02:13:17;99254.81;;;18.85;48.54
25638;BME280;13496;51.040;13.680;2023-04-29T02:18:19;99252.19;;;18.85;48.89
25638;BME280;13496;51.040;13.680;2023-04-29T02:23:23;99247.72;;;18.86;48.88
25638;BME280;13496;51.040;13.680;2023-04-29T02:28:24;99240.06;;;18.84;49.03
25638;BME280;13496;51.040;13.680;2023-04-29T02:33:26;99225.91;;;18.85;48.83
25638;BME280;13496;51.040;13.680;2023-04-29T02:38:28;99231.97;;;18.86;48.79
25638;BME280;13496;51.040;13.680;2023-04-29T02:43:29;99220.25;;;18.82;48.92
25638;BME280;13496;51.040;13.680;2023-04-29T02:48:33;99226.91;;;18.84;49.15
25638;BME280;13496;51.040;13.680;2023-04-29T02:53:53;99237.63;;;18.83;48.91
25638;BME280;13496;51.040;13.680;2023-04-29T02:58:55;99226.50;;;18.81;49.22
25638;BME280;13496;51.040;13.680;2023-04-29T03:03:57;99225.91;;;18.79;48.84
25638;BME280;13496;51.040;13.680;2023-04-29T03:08:59;99220.63;;;18.79;48.98
25638;BME280;13496;51.040;13.680;2023-04-29T03:14:00;99220.63;;;18.79;49.01
25638;BME280;13496;51.040;13.680;2023-04-29T03:19:02;99210.13;;;18.79;49.10
25638;BME280;13496;51.040;13.680;2023-04-29T03:24:04;99206.69;;;18.78;48.96
25638;BME280;13496;51.040;13.680;2023-04-29T03:29:09;99212.97;;;18.77;48.89
25638;BME280;13496;51.040;13.680;2023-04-29T03:34:11;99217.22;;;18.78;48.88
25638;BME280;13496;51.040;13.680;2023-04-29T03:39:17;99209.31;;;18.78;48.91
25638;BME280;13496;51.040;13.680;2023-04-29T03:44:19;99203.03;;;18.79;48.85
25638;BME280;13496;51.040;13.680;2023-04-29T03:49:21;99198.41;;;18.75;49.27
25638;BME280;13496;51.040;13.680;2023-04-29T03:54:23;99202.84;;;18.74;49.12
25638;BME280;13496;51.040;13.680;2023-04-29T03:59:26;99211.34;;;18.76;49.03
25638;BME280;13496;51.040;13.680;2023-04-29T04:04:27;99208.13;;;18.74;48.97
25638;BME280;13496;51.040;13.680;2023-04-29T04:09:29;99212.56;;;18.74;48.92
25638;BME280;13496;51.040;13.680;2023-04-29T04:14:31;99206.09;;;18.76;48.99
25638;BME280;13496;51.040;13.680;2023-04-29T04:19:33;99214.19;;;18.75;49.48
25638;BME280;13496;51.040;13.680;2023-04-29T04:24:35;99212.16;;;18.77;48.81
25638;BME280;13496;51.040;13.680;2023-04-29T04:29:37;99217.22;;;18.78;48.76
25638;BME280;13496;51.040;13.680;2023-04-29T04:34:45;99220.63;;;18.79;48.87
25638;BME280;13496;51.040;13.680;2023-04-29T04:39:47;99221.88;;;18.76;48.91
25638;BME280;13496;51.040;13.680;2023-04-29T04:44:52;99227.13;;;18.76;48.90
25638;BME280;13496;51.040;13.680;2023-04-29T04:50:04;99232.38;;;18.76;48.90
25638;BME280;13496;51.040;13.680;2023-04-29T04:55:07;99229.13;;;18.74;49.11
25638;BME280;13496;51.040;13.680;2023-04-29T05:00:11;99227.13;;;18.76;48.72
25638;BME280;13496;51.040;13.680;2023-04-29T05:05:13;99233.78;;;18.79;48.94
25638;BME280;13496;51.040;13.680;2023-04-29T05:10:17;99242.47;;;18.79;49.02
25638;BME280;13496;51.040;13.680;2023-04-29T05:15:24;99243.50;;;18.78;48.70
25638;BME280;13496;51.040;13.680;2023-04-29T05:20:29;99234.41;;;18.81;48.79
25638;BME280;13496;51.040;13.680;2023-04-29T05:25:31;99244.69;;;18.82;49.00
25638;BME280;13496;51.040;13.680;2023-04-29T05:30:33;99241.25;;;18.82;48.51
25638;BME280;13496;51.040;13.680;2023-04-29T05:35:35;99248.53;;;18.86;48.44
25638;BME280;13496;51.040;13.680;2023-04-29T05:40:38;99256.22;;;18.95;48.35
25638;BME280;13496;51.040;13.680;2023-04-29T05:46:02;99256.84;;;18.97;48.51
25638;BME280;13496;51.040;13.680;2023-04-29T05:51:04;99259.47;;;18.97;48.84
25638;BME280;13496;51.040;13.680;2023-04-29T05:56:07;99260.09;;;18.99;48.51
25638;BME280;13496;51.040;13.680;2023-04-29T06:01:10;99267.53;;;19.02;48.37
25638;BME280;13496;51.040;13.680;2023-04-29T06:06:12;99270.00;;;19.03;48.41
25638;BME280;13496;51.040;13.680;2023-04-29T06:11:19;99276.66;;;19.06;48.33
25638;BME280;13496;51.040;13.680;2023-04-29T06:16:21;99273.63;;;19.09;48.11
25638;BME280;13496;51.040;13.680;2023-04-29T06:21:22;99278.47;;;19.12;48.05
25638;BME280;13496;51.040;13.680;2023-04-29T06:26:24;99276.47;;;19.14;48.08
25638;BME280;13496;51.040;13.680;2023-04-29T06:31:26;99292.44;;;19.19;48.27
25638;BME280;13496;51.040;13.680;2023-04-29T06:36:32;99291.00;;;19.23;48.23
25638;BME280;13496;51.040;13.680;2023-04-29T06:41:53;99298.09;;;19.23;48.07
25638;BME280;13496;51.040;13.680;2023-04-29T06:47:13;99299.72;;;19.17;48.19
25638;BME280;13496;51.040;13.680;2023-04-29T06:52:23;99309.63;;;19.15;48.52
25638;BME280;13496;51.040;13.680;2023-04-29T06:57:24;99305.38;;;19.14;48.52
25638;BME280;13496;51.040;13.680;2023-04-29T07:02:26;99305.56;;;19.19;48.85
25638;BME280;13496;51.040;13.680;2023-04-29T07:07:28;99305.56;;;19.19;48.66
25638;BME280;13496;51.040;13.680;2023-04-29T07:12:29;99320.16;;;19.15;48.40
25638;BME280;13496;51.040;13.680;2023-04-29T07:17:31;99321.75;;;19.16;48.71
25638;BME280;13496;51.040;13.680;2023-04-29T07:22:33;99325.00;;;19.18;48.32
25638;BME280;13496;51.040;13.680;2023-04-29T07:27:35;99317.31;;;19.23;48.71
25638;BME280;13496;51.040;13.680;2023-04-29T07:32:37;99324.19;;;19.24;48.58
25638;BME280;13496;51.040;13.680;2023-04-29T07:37:40;99331.28;;;19.30;48.34
25638;BME280;13496;51.040;13.680;2023-04-29T07:42:42;99332.69;;;19.40;48.48
25638;BME280;13496;51.040;13.680;2023-04-29T07:47:43;99340.16;;;19.43;48.13
25638;BME280;13496;51.040;13.680;2023-04-29T07:52:46;99352.09;;;19.52;48.16
25638;BME280;13496;51.040;13.680;2023-04-29T07:57:51;99354.13;;;19.56;47.87
25638;BME280;13496;51.040;13.680;2023-04-29T08:02:54;99363.03;;;19.49;48.10
25638;BME280;13496;51.040;13.680;2023-04-29T08:07:56;99362.81;;;19.50;47.98
25638;BME280;13496;51.040;13.680;2023-04-29T08:13:00;99374.41;;;19.63;47.86
25638;BME280;13496;51.040;13.680;2023-04-29T08:18:03;99375.41;;;19.62;48.30
25638;BME280;13496;51.040;13.680;2023-04-29T08:23:05;99371.94;;;19.48;48.42
25638;BME280;13496;51.040;13.680;2023-04-29T08:28:06;99386.31;;;19.45;48.93
25638;BME280;13496;51.040;13.680;2023-04-29T08:33:08;99387.72;;;19.41;48.45
25638;BME280;13496;51.040;13.680;2023-04-29T08:38:10;99390.97;;;19.43;48.18
25638;BME280;13496;51.040;13.680;2023-04-29T08:43:12;99393.78;;;19.42;48.26
25638;BME280;13496;51.040;13.680;2023-04-29T08:48:16;99401.09;;;19.40;48.48
25638;BME280;13496;51.040;13.680;2023-04-29T08:53:18;99411.19;;;19.43;48.29
25638;BME280;13496;51.040;13.680;2023-04-29T08:58:20;99412.84;;;19.44;48.41
25638;BME280;13496;51.040;13.680;2023-04-29T09:03:39;99420.50;;;19.39;48.58
25638;BME280;13496;51.040;13.680;2023-04-29T09:08:43;99424.97;;;19.38;48.54
25638;BME280;13496;51.040;13.680;2023-04-29T09:13:44;99426.78;;;19.38;48.59
25638;BME280;13496;51.040;13.680;2023-04-29T09:18:48;99432.44;;;19.34;48.33
25638;BME280;13496;51.040;13.680;2023-04-29T09:23:51;99432.44;;;19.34;48.80
25638;BME280;13496;51.040;13.680;2023-04-29T09:29:07;99443.59;;;19.37;48.34
25638;BME280;13496;51.040;13.680;2023-04-29T09:34:12;99447.22;;;19.49;48.11
25638;BME280;13496;51.040;13.680;2023-04-29T09:39:19;99452.31;;;19.44;48.16
25638;BME280;13496;51.040;13.680;2023-04-29T09:44:41;99461.41;;;19.41;48.35
25638;BME280;13496;51.040;13.680;2023-04-29T09:49:43;99456.97;;;19.48;48.27
25638;BME280;13496;51.040;13.680;2023-04-29T09:54:50;99470.31;;;19.60;48.00
25638;BME280;13496;51.040;13.680;2023-04-29T09:59:52;99474.81;;;19.66;47.80
25638;BME280;13496;51.040;13.680;2023-04-29T10:04:54;99480.88;;;19.80;47.56
25638;BME280;13496;51.040;13.680;2023-04-29T10:09:59;99479.69;;;19.82;47.90
25638;BME280;13496;51.040;13.680;2023-04-29T10:15:26;99486.16;;;19.93;47.64
25638;BME280;13496;51.040;13.680;2023-04-29T10:20:29;99481.91;;;19.92;47.45
25638;BME280;13496;51.040;13.680;2023-04-29T10:25:31;99491.00;;;19.90;47.90
25638;BME280;13496;51.040;13.680;2023-04-29T10:30:37;99491.00;;;19.90;47.77
25638;BME280;13496;51.040;13.680;2023-04-29T10:35:42;99497.50;;;19.80;47.38
25638;BME280;13496;51.040;13.680;2023-04-29T10:40:46;99498.72;;;19.91;47.38
25638;BME280;13496;51.040;13.680;2023-04-29T10:45:49;99499.31;;;20.00;47.59
25638;BME280;13496;51.040;13.680;2023-04-29T10:55:55;99511.66;;;19.86;47.45
25638;BME280;13496;51.040;13.680;2023-04-29T11:00:58;99512.28;;;19.95;47.20
25638;BME280;13496;51.040;13.680;2023-04-29T11:06:07;99503.38;;;20.02;46.64
25638;BME280;13496;51.040;13.680;2023-04-29T11:11:09;99517.75;;;20.20;46.57
25638;BME280;13496;51.040;13.680;2023-04-29T11:16:13;99512.69;;;20.25;46.75
25638;BME280;13496;51.040;13.680;2023-04-29T11:21:15;99516.94;;;20.33;45.96
25638;BME280;13496;51.040;13.680;2023-04-29T11:26:19;99532.34;;;20.29;45.89
25638;BME280;13496;51.040;13.680;2023-04-29T11:31:25;99529.66;;;20.49;46.28
25638;BME280;13496;51.040;13.680;2023-04-29T11:36:31;99534.16;;;20.28;45.94
25638;BME280;13496;51.040;13.680;2023-04-29T11:41:33;99532.53;;;20.41;45.33
25638;BME280;13496;51.040;13.680;2023-04-29T11:46:36;99530.91;;;20.26;45.85
25638;BME280;13496;51.040;13.680;2023-04-29T11:51:37;99546.50;;;20.28;46.22
25638;BME280;13496;51.040;13.680;2023-04-29T11:56:40;99550.78;;;20.29;46.12
25638;BME280;13496;51.040;13.680;2023-04-29T12:01:42;99559.69;;;20.28;46.62
25638;BME280;13496;51.040;13.680;2023-04-29T12:06:44;99554.19;;;20.43;45.95
25638;BME280;13496;51.040;13.680;2023-04-29T12:11:47;99565.16;;;20.33;46.73
25638;BME280;13496;51.040;13.680;2023-04-29T12:16:50;99571.03;;;20.22;46.59
25638;BME280;13496;51.040;13.680;2023-04-29T12:21:52;99586.22;;;20.13;45.66
25638;BME280;13496;51.040;13.680;2023-04-29T12:26:54;99595.16;;;20.25;46.14
25638;BME280;13496;51.040;13.680;2023-04-29T12:31:56;99600.22;;;20.34;46.05
25638;BME280;13496;51.040;13.680;2023-04-29T12:36:58;99609.75;;;20.21;45.99
25638;BME280;13496;51.040;13.680;2023-04-29T12:42:00;99625.53;;;20.08;46.19
25638;BME280;13496;51.040;13.680;2023-04-29T12:47:10;99632.81;;;19.99;46.11
25638;BME280;13496;51.040;13.680;2023-04-29T12:52:13;99635.25;;;20.08;47.05
25638;BME280;13496;51.040;13.680;2023-04-29T12:57:14;99640.31;;;20.09;46.64
25638;BME280;13496;51.040;13.680;2023-04-29T13:02:17;99648.22;;;19.96;46.36
25638;BME280;13496;51.040;13.680;2023-04-29T13:07:18;99642.97;;;20.02;46.40
25638;BME280;13496;51.040;13.680;2023-04-29T13:12:21;99649.63;;;20.05;46.65
25638;BME280;13496;51.040;13.680;2023-04-29T13:17:22;99661.59;;;20.01;45.88
25638;BME280;13496;51.040;13.680;2023-04-29T13:22:24;99672.56;;;20.11;47.09
25638;BME280;13496;51.040;13.680;2023-04-29T13:27:26;99679.81;;;20.09;46.54
25638;BME280;13496;51.040;13.680;2023-04-29T13:32:28;99683.44;;;19.95;46.31
25638;BME280;13496;51.040;13.680;2023-04-29T13:37:29;99687.31;;;19.99;47.21
25638;BME280;13496;51.040;13.680;2023-04-29T13:42:31;99689.53;;;19.95;46.70
25638;BME280;13496;51.040;13.680;2023-04-29T13:47:33;99691.34;;;19.95;47.54
25638;BME280;13496;51.040;13.680;2023-04-29T13:52:34;99697.63;;;19.94;46.94
25638;BME280;13496;51.040;13.680;2023-04-29T13:57:36;99692.56;;;19.92;46.80
25638;BME280;13496;51.040;13.680;2023-04-29T14:02:38;99707.13;;;19.88;47.32
25638;BME280;13496;51.040;13.680;2023-04-29T14:07:39;99703.09;;;19.92;46.95
25638;BME280;13496;51.040;13.680;2023-04-29T14:12:42;99717.06;;;19.93;47.14
25638;BME280;13496;51.040;13.680;2023-04-29T14:17:43;99719.50;;;19.88;46.76
25638;BME280;13496;51.040;13.680;2023-04-29T14:22:45;99727.16;;;19.82;46.96
25638;BME280;13496;51.040;13.680;2023-04-29T14:27:47;99730.81;;;19.81;47.44
25638;BME280;13496;51.040;13.680;2023-04-29T14:32:49;99730.00;;;19.81;47.58
25638;BME280;13496;51.040;13.680;2023-04-29T14:37:51;99730.81;;;19.81;47.61
25638;BME280;13496;51.040;13.680;2023-04-29T14:42:53;99734.88;;;19.84;47.33
25638;BME280;13496;51.040;13.680;2023-04-29T14:47:55;99742.56;;;19.86;47.41
25638;BME280;13496;51.040;13.680;2023-04-29T14:52:56;99748.22;;;19.82;47.34
25638;BME280;13496;51.040;13.680;2023-04-29T14:57:58;99753.47;;;19.82;47.23
25638;BME280;13496;51.040;13.680;2023-04-29T15:03:00;99749.84;;;19.83;47.30
25638;BME280;13496;51.040;13.680;2023-04-29T15:08:02;99759.13;;;19.79;47.55
25638;BME280;13496;51.040;13.680;2023-04-29T15:13:03;99768.06;;;19.78;47.62
25638;BME280;13496;51.040;13.680;2023-04-29T15:18:06;99760.34;;;19.77;47.91
25638;BME280;13496;51.040;13.680;2023-04-29T15:23:09;99763.97;;;19.76;47.52
25638;BME280;13496;51.040;13.680;2023-04-29T15:28:10;99769.44;;;19.74;47.67
25638;BME280;13496;51.040;13.680;2023-04-29T15:33:12;99762.16;;;19.70;47.98
25638;BME280;13496;51.040;13.680;2023-04-29T15:38:14;99764.81;;;19.76;47.54
25638;BME280;13496;51.040;13.680;2023-04-29T15:43:15;99766.81;;;19.74;47.85
25638;BME280;13496;51.040;13.680;2023-04-29T15:48:17;99769.03;;;19.71;47.89
25638;BME280;13496;51.040;13.680;2023-04-29T15:53:19;99776.50;;;19.67;47.91
25638;BME280;13496;51.040;13.680;2023-04-29T15:58:21;99792.28;;;19.67;47.51
25638;BME280;13496;51.040;13.680;2023-04-29T16:03:22;99785.41;;;19.66;47.41
25638;BME280;13496;51.040;13.680;2023-04-29T16:08:24;99788.84;;;19.67;48.03
25638;BME280;13496;51.040;13.680;2023-04-29T16:13:26;99806.84;;;19.63;48.23
25638;BME280;13496;51.040;13.680;2023-04-29T16:18:28;99803.19;;;19.64;47.94
25638;BME280;13496;51.040;13.680;2023-04-29T16:23:29;99801.22;;;19.66;48.31
25638;BME280;13496;51.040;13.680;2023-04-29T16:28:31;99813.13;;;19.62;48.07
25638;BME280;13496;51.040;13.680;2023-04-29T16:33:33;99810.63;;;19.61;48.01
25638;BME280;13496;51.040;13.680;2023-04-29T16:38:34;99813.28;;;19.61;48.01
25638;BME280;13496;51.040;13.680;2023-04-29T16:43:36;99816.28;;;19.57;47.93
25638;BME280;13496;51.040;13.680;2023-04-29T16:48:38;99821.16;;;19.61;47.92
25638;BME280;13496;51.040;13.680;2023-04-29T16:53:40;99817.50;;;19.55;47.96
25638;BME280;13496;51.040;13.680;2023-04-29T16:58:41;99824.38;;;19.56;47.73
25638;BME280;13496;51.040;13.680;2023-04-29T17:03:44;99832.28;;;19.56;47.42
25638;BME280;13496;51.040;13.680;2023-04-29T17:08:47;99831.84;;;19.52;47.90
25638;BME280;13496;51.040;13.680;2023-04-29T17:13:48;99848.88;;;19.56;47.72
25638;BME280;13496;51.040;13.680;2023-04-29T17:18:51;99847.06;;;19.57;48.14
25638;BME280;13496;51.040;13.680;2023-04-29T17:23:52;99856.97;;;19.55;48.20
25638;BME280;13496;51.040;13.680;2023-04-29T17:28:54;99865.06;;;19.53;48.37
25638;BME280;13496;51.040;13.680;2023-04-29T17:33:56;99874.75;;;19.53;47.96
25638;BME280;13496;51.040;13.680;2023-04-29T17:39:05;99871.31;;;19.52;48.30
25638;BME280;13496;51.040;13.680;2023-04-29T17:44:10;99874.16;;;19.51;48.17
25638;BME280;13496;51.040;13.680;2023-04-29T17:49:12;99882.06;;;19.51;48.18
25638;BME280;13496;51.040;13.680;2023-04-29T17:54:13;99889.31;;;19.49;48.56
25638;BME280;13496;51.040;13.680;2023-04-29T17:59:15;99895.75;;;19.46;48.63
25638;BME280;13496;51.040;13.680;2023-04-29T18:04:17;99900.22;;;19.46;48.38
25638;BME280;13496;51.040;13.680;2023-04-29T18:09:19;99907.50;;;19.44;47.99
25638;BME280;13496;51.040;13.680;2023-04-29T18:14:20;99911.13;;;19.43;48.24
25638;BME280;13496;51.040;13.680;2023-04-29T18:19:22;99912.75;;;19.44;48.21
25638;BME280;13496;51.040;13.680;2023-04-29T18:24:24;99917.75;;;19.39;48.46
25638;BME280;13496;51.040;13.680;2023-04-29T18:29:26;99911.91;;;19.37;48.25
25638;BME280;13496;51.040;13.680;2023-04-29T18:34:34;99924.03;;;19.38;48.50
25638;BME280;13496;51.040;13.680;2023-04-29T18:39:36;99925.84;;;19.37;48.79
25638;BME280;13496;51.040;13.680;2023-04-29T18:44:38;99935.56;;;19.37;48.78
25638;BME280;13496;51.040;13.680;2023-04-29T18:49:40;99934.13;;;19.34;48.57
25638;BME280;13496;51.040;13.680;2023-04-29T18:54:42;99940.41;;;19.33;49.19
25638;BME280;13496;51.040;13.680;2023-04-29T18:59:44;99963.25;;;19.32;48.84
25638;BME280;13496;51.040;13.680;2023-04-29T19:04:45;99966.88;;;19.31;49.05
25638;BME280;13496;51.040;13.680;2023-04-29T19:09:47;99971.53;;;19.29;48.59
25638;BME280;13496;51.040;13.680;2023-04-29T19:14:49;99975.16;;;19.28;48.78
25638;BME280;13496;51.040;13.680;2023-04-29T19:19:50;99975.16;;;19.28;49.33
25638;BME280;13496;51.040;13.680;2023-04-29T19:24:52;99984.03;;;19.27;48.85
25638;BME280;13496;51.040;13.680;2023-04-29T19:29:54;99990.31;;;19.26;49.17
25638;BME280;13496;51.040;13.680;2023-04-29T19:34:56;99989.31;;;19.27;48.95
25638;BME280;13496;51.040;13.680;2023-04-29T19:39:58;99992.13;;;19.26;48.94
25638;BME280;13496;51.040;13.680;2023-04-29T19:44:59;100001.63;;;19.27;49.46
25638;BME280;13496;51.040;13.680;2023-04-29T19:50:01;100002.81;;;19.24;49.34
25638;BME280;13496;51.040;13.680;2023-04-29T19:55:03;100007.09;;;19.25;49.26
25638;BME280;13496;51.040;13.680;2023-04-29T20:00:05;100002.66;;;19.26;48.97
25638;BME280;13496;51.040;13.680;2023-04-29T20:05:08;100004.63;;;19.24;49.16
25638;BME280;13496;51.040;13.680;2023-04-29T20:10:16;100012.53;;;19.24;49.42
25638;BME280;13496;51.040;13.680;2023-04-29T20:15:17;99999.78;;;19.21;49.10
25638;BME280;13496;51.040;13.680;2023-04-29T20:20:19;100009.44;;;19.20;49.20
25638;BME280;13496;51.040;13.680;2023-04-29T20:25:21;100014.56;;;19.22;49.57
25638;BME280;13496;51.040;13.680;2023-04-29T20:30:22;100016.97;;;19.23;49.41
25638;BME280;13496;51.040;13.680;2023-04-29T20:35:24;100017.19;;;19.22;49.42
25638;BME280;13496;51.040;13.680;2023-04-29T20:40:27;100018.19;;;19.21;49.52
25638;BME280;13496;51.040;13.680;2023-04-29T20:45:29;100023.63;;;19.19;49.87
25638;BME280;13496;51.040;13.680;2023-04-29T20:50:30;100011.47;;;19.18;49.49
25638;BME280;13496;51.040;13.680;2023-04-29T20:55:32;100016.72;;;19.18;49.34
25638;BME280;13496;51.040;13.680;2023-04-29T21:00:34;100013.47;;;19.16;49.34
25638;BME280;13496;51.040;13.680;2023-04-29T21:05:35;100022.16;;;19.17;49.03
25638;BME280;13496;51.040;13.680;2023-04-29T21:10:37;100023.16;;;19.16;49.13
25638;BME280;13496;51.040;13.680;2023-04-29T21:15:39;100026.63;;;19.16;49.46
25638;BME280;13496;51.040;13.680;2023-04-29T21:20:41;100027.63;;;19.15;49.38
25638;BME280;13496;51.040;13.680;2023-04-29T21:25:42;100032.06;;;19.15;49.36
25638;BME280;13496;51.040;13.680;2023-04-29T21:30:44;100033.06;;;19.14;48.93
25638;BME280;13496;51.040;13.680;2023-04-29T21:35:46;100037.50;;;19.13;49.02
25638;BME280;13496;51.040;13.680;2023-04-29T21:40:51;100041.94;;;19.13;49.42
25638;BME280;13496;51.040;13.680;2023-04-29T21:45:53;100043.75;;;19.12;49.22
25638;BME280;13496;51.040;13.680;2023-04-29T21:50:55;100045.59;;;19.12;49.65
25638;BME280;13496;51.040;13.680;2023-04-29T21:55:56;100040.53;;;19.10;49.58
25638;BME280;13496;51.040;13.680;2023-04-29T22:00:58;100036.88;;;19.11;49.23
25638;BME280;13496;51.040;13.680;2023-04-29T22:06:04;100047.41;;;19.11;49.44
25638;BME280;13496;51.040;13.680;2023-04-29T22:11:05;100052.66;;;19.11;49.34
25638;BME280;13496;51.040;13.680;2023-04-29T22:16:07;100054.66;;;19.09;49.50
25638;BME280;13496;51.040;13.680;2023-04-29T22:21:09;100056.47;;;19.08;49.39
25638;BME280;13496;51.040;13.680;2023-04-29T22:26:11;100054.66;;;19.09;49.54
25638;BME280;13496;51.040;13.680;2023-04-29T22:31:12;100064.34;;;19.08;49.46
25638;BME280;13496;51.040;13.680;2023-04-29T22:36:14;100064.56;;;19.07;49.53
25638;BME280;13496;51.040;13.680;2023-04-29T22:41:16;100063.75;;;19.06;49.74
25638;BME280;13496;51.040;13.680;2023-04-29T22:46:17;100069.00;;;19.06;50.11
25638;BME280;13496;51.040;13.680;2023-04-29T22:51:19;100070.81;;;19.06;49.66
25638;BME280;13496;51.040;13.680;2023-04-29T22:56:21;100073.63;;;19.04;49.63
25638;BME280;13496;51.040;13.680;2023-04-29T23:01:24;100078.88;;;19.04;49.49
25638;BME280;13496;51.040;13.680;2023-04-29T23:06:26;100075.44;;;19.04;49.45
25638;BME280;13496;51.040;13.680;2023-04-29T23:11:29;100081.50;;;19.04;49.67
25638;BME280;13496;51.040;13.680;2023-04-29T23:16:31;100076.25;;;19.04;49.48
25638;BME280;13496;51.040;13.680;2023-04-29T23:21:33;100075.63;;;19.02;49.62
25638;BME280;13496;51.040;13.680;2023-04-29T23:26:35;100076.44;;;19.03;50.04
25638;BME280;13496;51.040;13.680;2023-04-29T23:31:36;100079.88;;;19.03;49.59
25638;BME280;13496;51.040;13.680;2023-04-29T23:36:38;100080.88;;;19.02;49.49
25638;BME280;13496;51.040;13.680;2023-04-29T23:41:39;100080.44;;;18.99;49.62
25638;BME280;13496;51.040;13.680;2023-04-29T23:46:41;100083.06;;;18.99;49.55
25638;BME280;13496;51.040;13.680;2023-04-29T23:51:43;100082.06;;;19.00;49.46
25638;BME280;13496;51.040;13.680;2023-04-29T23:56:45;100088.31;;;18.99;49.61
